Aiquara, Brazil
Current Conditions -  °F | °C
As of 6:00 AM on Friday 24 Oct 2014 (Local Time) from SBIL Reporting Station
Light Rain Light Rain  
Wind Chill: 70°   Ceiling: 2000
Heat Index: 70°   Visibility: 4mi
Dew Point: 68°   Wind: 9mph
Humidity: 94%   Direction: 220°SW
Pressure: 30"   Gusts: NA
Location:  14.13°S, 39.89°W
Report Text: SBIL 240900Z 22008KT 6000 -RA SCT010 BKN020 BKN070 21/20 Q1016
Loading
Personal Weather Stations






























Interactive Weather Map
Tropical Storm Tracking
New forecast layout! Learn more

10-Day Weather Forecast

Advertisements
Track Severe Weather on mobile